Altus, OK

4:07 AM CDT on July 28, 2017 (GMT -0500)
Altus Municipal

Weather History for KAXS - November, 2012

Change the Weather History Date:

Thursday, November 29, 2012

  Actual Average (KLTS) Record (KLTS)
Temperature  
Mean Temperature 56 °F -  
Max Temperature 71 °F 55 °F 77 °F (2014)
Min Temperature 41 °F 34 °F 15 °F (2001)
Degree Days  
Heating Degree Days 9    
Growing Degree Days 6 (Base 50)    
Moisture  
Dew Point 40 °F    
Average Humidity 62    
Maximum Humidity 82    
Minimum Humidity 33    
Precipitation  
Precipitation 0.00 in - - ()
Sea Level Pressure  
Sea Level Pressure 30.07 in    
Wind  
Wind Speed 11 mph (SE)    
Max Wind Speed 20 mph    
Max Gust Speed 24 mph    
Visibility 10 miles    
Events      
Averages and records for this station are not official NWS values.
T = Trace of Precipitation, MM = Missing Value Source: NWS Daily Summary

Daily Weather History Graph

Daily Weather History Graph

Search for Another Location

Airport or City:

Trip Planner

Search our weather history database for the weather conditions in past years. The results will help you decide how hot, cold, wet, or windy it might be!

Date:

Astronomy

Nov. 29, 2012 Rise Set
Actual Time 7:24 AM CST 5:26 PM CST
Civil Twilight 6:57 AM CST 5:54 PM CST
Nautical Twilight 6:26 AM CST 6:25 PM CST
Astronomical Twilight 5:55 AM CST 6:55 PM CST
Moon 6:31 PM CST (11/29) 8:12 AM CST (11/29)
Length of Visible Light 10h 56m
Length of Day
10h 01m
Full, 99% of the Moon is Illuminated
Nov 29
Full
Dec 6
Last Quarter
Dec 13
New
Dec 19
First Quarter
Dec 28
Full

Hourly Weather History & Observations

Time (CST) Temp. Windchill Dew Point Humidity Pressure Visibility Wind Dir Wind Speed Gust Speed Precip Events Conditions
12:15 AM 46.4 °F 42.4 °F 37.4 °F 71% 30.16 in 10.0 mi ESE 8.1 mph - N/A   Clear
12:35 AM 46.4 °F 41.9 °F 37.4 °F 71% 30.15 in 10.0 mi ESE 9.2 mph - N/A   Clear
12:55 AM 46.4 °F 41.9 °F 37.4 °F 71% 30.16 in 10.0 mi ESE 9.2 mph - N/A   Clear
1:15 AM 46.4 °F 41.9 °F 37.4 °F 71% 30.15 in 10.0 mi ESE 9.2 mph - N/A   Clear
1:35 AM 44.6 °F 39.7 °F 37.4 °F 76% 30.15 in 10.0 mi SE 9.2 mph - N/A   Clear
1:55 AM 44.6 °F 39.7 °F 35.6 °F 71% 30.14 in 10.0 mi SE 9.2 mph - N/A   Clear
2:15 AM 42.8 °F 38.6 °F 35.6 °F 76% 30.15 in 10.0 mi East 6.9 mph - N/A   Clear
2:35 AM 42.8 °F 38.0 °F 35.6 °F 76% 30.15 in 10.0 mi ESE 8.1 mph - N/A   Clear
2:55 AM 42.8 °F 38.0 °F 35.6 °F 76% 30.15 in 10.0 mi ESE 8.1 mph - N/A   Clear
3:15 AM 42.8 °F 38.0 °F 35.6 °F 76% 30.16 in 10.0 mi East 8.1 mph - N/A   Clear
3:35 AM 42.8 °F 38.6 °F 35.6 °F 76% 30.15 in 10.0 mi ESE 6.9 mph - N/A   Clear
3:55 AM 41.0 °F 35.2 °F 35.6 °F 81% 30.15 in 10.0 mi ESE 9.2 mph - N/A   Clear
4:15 AM 42.8 °F 38.0 °F 35.6 °F 76% 30.14 in 10.0 mi ESE 8.1 mph - N/A   Clear
4:35 AM 41.0 °F 35.8 °F 35.6 °F 81% 30.14 in 10.0 mi ESE 8.1 mph - N/A   Clear
4:55 AM 41.0 °F 35.2 °F 35.6 °F 81% 30.13 in 10.0 mi SE 9.2 mph - N/A   Clear
5:15 AM 41.0 °F 35.2 °F 35.6 °F 81% 30.13 in 10.0 mi SE 9.2 mph - N/A   Clear
5:35 AM 41.0 °F 36.4 °F 35.6 °F 81% 30.12 in 10.0 mi SE 6.9 mph - N/A   Clear
6:15 AM 41.0 °F 35.2 °F 35.6 °F 81% 30.12 in 10.0 mi SE 9.2 mph - N/A   Clear
6:35 AM 41.0 °F 34.3 °F 35.6 °F 81% 30.12 in 10.0 mi SSE 11.5 mph - N/A   Clear
6:55 AM 41.0 °F 34.7 °F 35.6 °F 81% 30.11 in 10.0 mi SE 10.4 mph - N/A   Clear
7:15 AM 41.0 °F 34.3 °F 35.6 °F 81% 30.11 in 10.0 mi SSE 11.5 mph - N/A   Clear
7:35 AM 42.8 °F 36.6 °F 37.4 °F 81% 30.11 in 10.0 mi SSE 11.5 mph - N/A   Clear
7:55 AM 44.6 °F 38.1 °F 37.4 °F 76% 30.11 in 10.0 mi SSE 13.8 mph - N/A   Clear
8:15 AM 44.6 °F 38.1 °F 39.2 °F 81% 30.11 in 10.0 mi SSE 13.8 mph - N/A   Clear
8:35 AM 46.4 °F 40.4 °F 39.2 °F 76% 30.11 in 10.0 mi SSE 13.8 mph - N/A   Clear
8:55 AM 50.0 °F - 41.0 °F 71% 30.11 in 10.0 mi SSE 12.7 mph - N/A   Clear
9:15 AM 50.0 °F - 41.0 °F 71% 30.12 in 10.0 mi South 15.0 mph - N/A   Clear
9:35 AM 51.8 °F - 41.0 °F 67% 30.12 in 10.0 mi South 15.0 mph - N/A   Clear
10:15 AM 57.2 °F - 42.8 °F 59% 30.11 in 10.0 mi South 17.3 mph 21.9 mph N/A   Clear
10:35 AM 59.0 °F - 42.8 °F 55% 30.11 in 10.0 mi South 17.3 mph - N/A   Clear
10:55 AM 59.0 °F - 42.8 °F 55% 30.10 in 10.0 mi South 18.4 mph 24.2 mph N/A   Clear
11:15 AM 60.8 °F - 42.8 °F 52% 30.09 in 10.0 mi South 18.4 mph 24.2 mph N/A   Clear
11:55 AM 64.4 °F - 42.8 °F 45% 30.08 in 10.0 mi South 13.8 mph 21.9 mph N/A   Clear
12:15 PM 64.4 °F - 41.0 °F 42% 30.06 in 10.0 mi SSW 12.7 mph - N/A   Clear
12:35 PM 64.4 °F - 41.0 °F 42% 30.06 in 10.0 mi South 13.8 mph - N/A   Clear
12:55 PM 68.0 °F - 41.0 °F 37% 30.05 in 10.0 mi South 13.8 mph - N/A   Clear
1:15 PM 68.0 °F - 41.0 °F 37% 30.05 in 10.0 mi South 15.0 mph 20.7 mph N/A   Clear
1:35 PM 68.0 °F - 41.0 °F 37% 30.03 in 10.0 mi South 16.1 mph - N/A   Clear
1:55 PM 69.8 °F - 41.0 °F 35% 30.02 in 10.0 mi South 16.1 mph 21.9 mph N/A   Clear
2:15 PM 69.8 °F - 41.0 °F 35% 30.00 in 10.0 mi South 18.4 mph 24.2 mph N/A   Clear
2:35 PM 69.8 °F - 41.0 °F 35% 30.00 in 10.0 mi South 15.0 mph 23.0 mph N/A   Clear
2:55 PM 69.8 °F - 41.0 °F 35% 29.99 in 10.0 mi South 16.1 mph - N/A   Clear
3:15 PM 71.6 °F - 41.0 °F 33% 29.99 in 10.0 mi SSE 19.6 mph - N/A   Clear
3:35 PM 71.6 °F - 41.0 °F 33% 29.98 in 10.0 mi South 18.4 mph 23.0 mph N/A   Clear
3:55 PM 71.6 °F - 41.0 °F 33% 29.99 in 10.0 mi South 12.7 mph 21.9 mph N/A   Clear
4:15 PM 71.6 °F - 42.8 °F 35% 29.99 in 10.0 mi South 12.7 mph - N/A   Clear
4:35 PM 69.8 °F - 42.8 °F 38% 29.99 in 10.0 mi South 13.8 mph - N/A   Clear
4:55 PM 69.8 °F - 42.8 °F 38% 29.99 in 10.0 mi SSE 11.5 mph - N/A   Clear
5:15 PM 68.0 °F - 42.8 °F 40% 29.99 in 10.0 mi SSE 8.1 mph - N/A   Clear
5:35 PM 64.4 °F - 42.8 °F 45% 29.99 in 10.0 mi SE 6.9 mph - N/A   Clear
5:55 PM 62.6 °F - 42.8 °F 48% 29.99 in 10.0 mi East 8.1 mph - N/A   Clear
6:15 PM 60.8 °F - 42.8 °F 52% 30.00 in 10.0 mi East 9.2 mph - N/A   Clear
6:35 PM 59.0 °F - 42.8 °F 55% 30.00 in 10.0 mi East 9.2 mph - N/A   Clear
6:55 PM 59.0 °F - 42.8 °F 55% 30.01 in 10.0 mi ESE 11.5 mph - N/A   Clear
7:15 PM 55.4 °F - 42.8 °F 63% 30.01 in 10.0 mi ESE 9.2 mph - N/A   Clear
7:35 PM 55.4 °F - 42.8 °F 63% 30.02 in 10.0 mi ESE 9.2 mph - N/A   Clear
7:55 PM 55.4 °F - 42.8 °F 63% 30.02 in 10.0 mi East 10.4 mph - N/A   Clear
8:15 PM 55.4 °F - 44.6 °F 67% 30.02 in 10.0 mi ESE 12.7 mph - N/A   Clear
8:35 PM 55.4 °F - 44.6 °F 67% 30.02 in 10.0 mi ESE 12.7 mph - N/A   Clear
8:55 PM 55.4 °F - 44.6 °F 67% 30.02 in 10.0 mi ESE 11.5 mph - N/A   Clear
9:15 PM 55.4 °F - 44.6 °F 67% 30.02 in 10.0 mi ESE 11.5 mph - N/A   Clear
9:35 PM 53.6 °F - 44.6 °F 72% 30.03 in 10.0 mi ESE 10.4 mph - N/A   Clear
9:55 PM 53.6 °F - 44.6 °F 72% 30.03 in 10.0 mi ESE 11.5 mph - N/A   Clear
10:15 PM 53.6 °F - 44.6 °F 72% 30.03 in 10.0 mi ESE 9.2 mph - N/A   Clear
10:35 PM 53.6 °F - 44.6 °F 72% 30.03 in 10.0 mi ESE 9.2 mph - N/A   Clear
10:55 PM 51.8 °F - 44.6 °F 76% 30.03 in 10.0 mi East 10.4 mph - N/A   Clear
11:15 PM 51.8 °F - 44.6 °F 76% 30.03 in 10.0 mi ESE 11.5 mph - N/A   Clear
11:35 PM 50.0 °F - 42.8 °F 76% 30.04 in 10.0 mi ESE 9.2 mph - N/A   Clear
11:55 PM 50.0 °F - 44.6 °F 82% 30.03 in 10.0 mi ESE 8.1 mph - N/A   Clear